sensor_id;sensor_type;location;lat;lon;timestamp;temperature;humidity
10314;DHT22;5202;49.138;10.090;2022-08-01T00:01:22;21.20;69.50
10314;DHT22;5202;49.138;10.090;2022-08-01T00:03:51;21.10;69.60
10314;DHT22;5202;49.138;10.090;2022-08-01T00:06:19;21.10;69.70
10314;DHT22;5202;49.138;10.090;2022-08-01T00:08:47;21.10;69.80
10314;DHT22;5202;49.138;10.090;2022-08-01T00:11:16;21.10;69.80
10314;DHT22;5202;49.138;10.090;2022-08-01T00:13:45;21.00;69.90
10314;DHT22;5202;49.138;10.090;2022-08-01T00:16:14;21.00;70.00
10314;DHT22;5202;49.138;10.090;2022-08-01T00:18:43;21.00;70.20
10314;DHT22;5202;49.138;10.090;2022-08-01T00:21:11;21.00;70.40
10314;DHT22;5202;49.138;10.090;2022-08-01T00:23:39;21.00;70.50
10314;DHT22;5202;49.138;10.090;2022-08-01T00:26:08;20.90;70.60
10314;DHT22;5202;49.138;10.090;2022-08-01T00:28:36;20.90;70.60
10314;DHT22;5202;49.138;10.090;2022-08-01T00:31:05;20.90;70.80
10314;DHT22;5202;49.138;10.090;2022-08-01T00:33:34;20.90;70.90
10314;DHT22;5202;49.138;10.090;2022-08-01T00:36:02;20.90;70.90
10314;DHT22;5202;49.138;10.090;2022-08-01T00:38:30;20.90;71.00
10314;DHT22;5202;49.138;10.090;2022-08-01T00:40:59;20.80;71.10
10314;DHT22;5202;49.138;10.090;2022-08-01T00:43:27;20.80;71.20
10314;DHT22;5202;49.138;10.090;2022-08-01T00:45:56;20.80;71.30
10314;DHT22;5202;49.138;10.090;2022-08-01T00:48:25;20.80;71.40
10314;DHT22;5202;49.138;10.090;2022-08-01T00:50:54;20.80;71.50
10314;DHT22;5202;49.138;10.090;2022-08-01T00:53:22;20.70;71.60
10314;DHT22;5202;49.138;10.090;2022-08-01T00:55:51;20.70;71.80
10314;DHT22;5202;49.138;10.090;2022-08-01T00:58:20;20.70;71.80
10314;DHT22;5202;49.138;10.090;2022-08-01T01:00:50;20.70;71.80
10314;DHT22;5202;49.138;10.090;2022-08-01T01:03:21;20.70;71.80
10314;DHT22;5202;49.138;10.090;2022-08-01T01:06:29;20.70;72.00
10314;DHT22;5202;49.138;10.090;2022-08-01T01:09:17;20.70;72.20
10314;DHT22;5202;49.138;10.090;2022-08-01T01:12:08;20.70;72.50
10314;DHT22;5202;49.138;10.090;2022-08-01T01:14:44;20.60;72.40
10314;DHT22;5202;49.138;10.090;2022-08-01T01:17:23;20.50;72.70
10314;DHT22;5202;49.138;10.090;2022-08-01T01:20:16;20.50;73.60
10314;DHT22;5202;49.138;10.090;2022-08-01T01:22:53;20.30;74.70
10314;DHT22;5202;49.138;10.090;2022-08-01T01:25:46;20.20;75.20
10314;DHT22;5202;49.138;10.090;2022-08-01T01:28:25;20.00;75.70
10314;DHT22;5202;49.138;10.090;2022-08-01T01:30:58;19.90;76.50
10314;DHT22;5202;49.138;10.090;2022-08-01T01:33:29;19.70;77.20
10314;DHT22;5202;49.138;10.090;2022-08-01T01:36:02;19.60;77.50
10314;DHT22;5202;49.138;10.090;2022-08-01T01:38:41;19.50;78.10
10314;DHT22;5202;49.138;10.090;2022-08-01T01:41:12;19.30;78.40
10314;DHT22;5202;49.138;10.090;2022-08-01T01:43:42;19.20;78.60
10314;DHT22;5202;49.138;10.090;2022-08-01T01:46:16;19.20;78.80
10314;DHT22;5202;49.138;10.090;2022-08-01T01:48:46;19.20;79.00
10314;DHT22;5202;49.138;10.090;2022-08-01T01:51:16;19.10;79.30
10314;DHT22;5202;49.138;10.090;2022-08-01T01:53:45;19.00;79.80
10314;DHT22;5202;49.138;10.090;2022-08-01T01:56:14;18.90;80.00
10314;DHT22;5202;49.138;10.090;2022-08-01T01:58:44;18.90;80.40
10314;DHT22;5202;49.138;10.090;2022-08-01T02:01:15;18.90;80.80
10314;DHT22;5202;49.138;10.090;2022-08-01T02:04:11;18.80;81.30
10314;DHT22;5202;49.138;10.090;2022-08-01T02:06:40;18.80;81.20
10314;DHT22;5202;49.138;10.090;2022-08-01T02:09:09;18.60;81.80
10314;DHT22;5202;49.138;10.090;2022-08-01T02:11:38;18.50;82.10
10314;DHT22;5202;49.138;10.090;2022-08-01T02:14:28;18.50;82.40
10314;DHT22;5202;49.138;10.090;2022-08-01T02:16:58;18.40;82.60
10314;DHT22;5202;49.138;10.090;2022-08-01T02:19:30;18.40;82.80
10314;DHT22;5202;49.138;10.090;2022-08-01T02:22:07;18.30;83.10
10314;DHT22;5202;49.138;10.090;2022-08-01T02:24:40;18.20;83.40
10314;DHT22;5202;49.138;10.090;2022-08-01T02:27:13;18.10;83.60
10314;DHT22;5202;49.138;10.090;2022-08-01T02:29:47;18.10;83.80
10314;DHT22;5202;49.138;10.090;2022-08-01T02:32:24;18.10;84.00
10314;DHT22;5202;49.138;10.090;2022-08-01T02:34:56;18.10;84.40
10314;DHT22;5202;49.138;10.090;2022-08-01T02:37:26;18.00;84.80
10314;DHT22;5202;49.138;10.090;2022-08-01T02:39:57;18.00;84.90
10314;DHT22;5202;49.138;10.090;2022-08-01T02:42:26;18.00;85.00
10314;DHT22;5202;49.138;10.090;2022-08-01T02:44:57;17.90;85.00
10314;DHT22;5202;49.138;10.090;2022-08-01T02:47:28;17.90;85.00
10314;DHT22;5202;49.138;10.090;2022-08-01T02:49:57;17.90;85.20
10314;DHT22;5202;49.138;10.090;2022-08-01T02:52:27;17.90;85.40
10314;DHT22;5202;49.138;10.090;2022-08-01T02:54:58;17.90;85.40
10314;DHT22;5202;49.138;10.090;2022-08-01T02:57:30;17.80;85.70
10314;DHT22;5202;49.138;10.090;2022-08-01T03:00:18;17.70;86.00
10314;DHT22;5202;49.138;10.090;2022-08-01T03:02:52;17.60;86.50
10314;DHT22;5202;49.138;10.090;2022-08-01T03:05:23;17.60;86.50
10314;DHT22;5202;49.138;10.090;2022-08-01T03:07:53;17.50;86.80
10314;DHT22;5202;49.138;10.090;2022-08-01T03:10:30;17.50;87.30
10314;DHT22;5202;49.138;10.090;2022-08-01T03:13:00;17.40;87.60
10314;DHT22;5202;49.138;10.090;2022-08-01T03:15:31;17.40;87.90
10314;DHT22;5202;49.138;10.090;2022-08-01T03:18:06;17.30;88.00
10314;DHT22;5202;49.138;10.090;2022-08-01T03:20:36;17.30;87.80
10314;DHT22;5202;49.138;10.090;2022-08-01T03:23:09;17.30;87.90
10314;DHT22;5202;49.138;10.090;2022-08-01T03:25:40;17.30;88.10
10314;DHT22;5202;49.138;10.090;2022-08-01T03:28:13;17.30;88.30
10314;DHT22;5202;49.138;10.090;2022-08-01T03:30:42;17.30;88.50
10314;DHT22;5202;49.138;10.090;2022-08-01T03:33:13;17.30;88.90
10314;DHT22;5202;49.138;10.090;2022-08-01T03:35:46;17.30;89.10
10314;DHT22;5202;49.138;10.090;2022-08-01T03:38:19;17.20;89.00
10314;DHT22;5202;49.138;10.090;2022-08-01T03:40:53;17.20;89.10
10314;DHT22;5202;49.138;10.090;2022-08-01T03:43:26;17.20;89.00
10314;DHT22;5202;49.138;10.090;2022-08-01T03:46:02;17.30;89.60
10314;DHT22;5202;49.138;10.090;2022-08-01T03:48:39;17.00;90.00
10314;DHT22;5202;49.138;10.090;2022-08-01T03:51:09;16.90;90.10
10314;DHT22;5202;49.138;10.090;2022-08-01T03:53:41;16.90;90.40
10314;DHT22;5202;49.138;10.090;2022-08-01T03:56:13;16.80;90.40
10314;DHT22;5202;49.138;10.090;2022-08-01T03:58:46;16.80;90.60
10314;DHT22;5202;49.138;10.090;2022-08-01T04:01:16;16.80;90.70
10314;DHT22;5202;49.138;10.090;2022-08-01T04:03:47;16.80;90.70
10314;DHT22;5202;49.138;10.090;2022-08-01T04:06:18;16.70;90.90
10314;DHT22;5202;49.138;10.090;2022-08-01T04:08:47;16.70;91.10
10314;DHT22;5202;49.138;10.090;2022-08-01T04:11:24;16.70;91.10
10314;DHT22;5202;49.138;10.090;2022-08-01T04:13:54;16.70;91.20
10314;DHT22;5202;49.138;10.090;2022-08-01T04:16:24;16.70;91.50
10314;DHT22;5202;49.138;10.090;2022-08-01T04:18:54;16.60;91.50
10314;DHT22;5202;49.138;10.090;2022-08-01T04:21:26;16.60;91.60
10314;DHT22;5202;49.138;10.090;2022-08-01T04:23:59;16.60;91.80
10314;DHT22;5202;49.138;10.090;2022-08-01T04:26:30;16.60;92.00
10314;DHT22;5202;49.138;10.090;2022-08-01T04:29:00;16.60;92.20
10314;DHT22;5202;49.138;10.090;2022-08-01T04:31:32;16.60;92.20
10314;DHT22;5202;49.138;10.090;2022-08-01T04:34:05;16.60;92.30
10314;DHT22;5202;49.138;10.090;2022-08-01T04:36:36;16.60;92.30
10314;DHT22;5202;49.138;10.090;2022-08-01T04:39:06;16.60;92.50
10314;DHT22;5202;49.138;10.090;2022-08-01T04:41:35;16.60;92.60
10314;DHT22;5202;49.138;10.090;2022-08-01T04:44:04;16.70;92.60
10314;DHT22;5202;49.138;10.090;2022-08-01T04:46:34;16.70;92.60
10314;DHT22;5202;49.138;10.090;2022-08-01T04:49:06;16.80;92.80
10314;DHT22;5202;49.138;10.090;2022-08-01T04:51:36;16.80;92.90
10314;DHT22;5202;49.138;10.090;2022-08-01T04:54:04;16.90;92.80
10314;DHT22;5202;49.138;10.090;2022-08-01T04:56:34;17.00;93.10
10314;DHT22;5202;49.138;10.090;2022-08-01T04:59:02;17.00;93.30
10314;DHT22;5202;49.138;10.090;2022-08-01T05:01:49;17.10;93.70
10314;DHT22;5202;49.138;10.090;2022-08-01T05:04:19;17.10;93.60
10314;DHT22;5202;49.138;10.090;2022-08-01T05:06:48;17.10;93.60
10314;DHT22;5202;49.138;10.090;2022-08-01T05:09:17;17.20;93.80
10314;DHT22;5202;49.138;10.090;2022-08-01T05:11:46;17.20;93.60
10314;DHT22;5202;49.138;10.090;2022-08-01T05:14:14;17.30;93.60
10314;DHT22;5202;49.138;10.090;2022-08-01T05:16:42;17.40;93.30
10314;DHT22;5202;49.138;10.090;2022-08-01T05:19:10;17.40;93.40
10314;DHT22;5202;49.138;10.090;2022-08-01T05:21:40;17.50;93.60
10314;DHT22;5202;49.138;10.090;2022-08-01T05:24:08;17.60;93.40
10314;DHT22;5202;49.138;10.090;2022-08-01T05:26:37;17.70;93.60
10314;DHT22;5202;49.138;10.090;2022-08-01T05:29:07;17.80;93.40
10314;DHT22;5202;49.138;10.090;2022-08-01T05:31:36;18.00;93.30
10314;DHT22;5202;49.138;10.090;2022-08-01T05:34:04;18.00;93.30
10314;DHT22;5202;49.138;10.090;2022-08-01T05:36:42;18.20;93.10
10314;DHT22;5202;49.138;10.090;2022-08-01T05:39:10;18.30;93.30
10314;DHT22;5202;49.138;10.090;2022-08-01T05:41:40;18.50;93.20
10314;DHT22;5202;49.138;10.090;2022-08-01T05:44:09;18.60;93.10
10314;DHT22;5202;49.138;10.090;2022-08-01T05:46:37;18.70;92.60
10314;DHT22;5202;49.138;10.090;2022-08-01T05:49:06;18.90;92.30
10314;DHT22;5202;49.138;10.090;2022-08-01T05:51:34;19.00;92.20
10314;DHT22;5202;49.138;10.090;2022-08-01T05:54:04;19.20;92.00
10314;DHT22;5202;49.138;10.090;2022-08-01T05:56:32;19.40;92.00
10314;DHT22;5202;49.138;10.090;2022-08-01T05:59:01;19.50;91.70
10314;DHT22;5202;49.138;10.090;2022-08-01T06:01:29;19.70;91.50
10314;DHT22;5202;49.138;10.090;2022-08-01T06:03:58;19.90;91.50
10314;DHT22;5202;49.138;10.090;2022-08-01T06:06:28;20.00;91.40
10314;DHT22;5202;49.138;10.090;2022-08-01T06:08:56;20.10;91.20
10314;DHT22;5202;49.138;10.090;2022-08-01T06:11:26;20.30;90.90
10314;DHT22;5202;49.138;10.090;2022-08-01T06:13:54;20.40;90.70
10314;DHT22;5202;49.138;10.090;2022-08-01T06:16:23;20.60;90.50
10314;DHT22;5202;49.138;10.090;2022-08-01T06:18:51;20.70;90.80
10314;DHT22;5202;49.138;10.090;2022-08-01T06:21:22;20.70;91.10
10314;DHT22;5202;49.138;10.090;2022-08-01T06:23:51;20.70;91.20
10314;DHT22;5202;49.138;10.090;2022-08-01T06:26:19;20.80;91.30
10314;DHT22;5202;49.138;10.090;2022-08-01T06:28:50;20.80;91.30
10314;DHT22;5202;49.138;10.090;2022-08-01T06:31:18;20.80;91.40
10314;DHT22;5202;49.138;10.090;2022-08-01T06:33:46;20.80;91.20
10314;DHT22;5202;49.138;10.090;2022-08-01T06:36:15;20.80;91.20
10314;DHT22;5202;49.138;10.090;2022-08-01T06:38:44;20.70;91.40
10314;DHT22;5202;49.138;10.090;2022-08-01T06:41:12;20.60;91.50
10314;DHT22;5202;49.138;10.090;2022-08-01T06:43:40;20.70;91.70
10314;DHT22;5202;49.138;10.090;2022-08-01T06:46:10;20.70;91.70
10314;DHT22;5202;49.138;10.090;2022-08-01T06:48:38;20.70;91.60
10314;DHT22;5202;49.138;10.090;2022-08-01T06:51:07;20.70;91.80
10314;DHT22;5202;49.138;10.090;2022-08-01T06:53:37;20.90;91.60
10314;DHT22;5202;49.138;10.090;2022-08-01T06:56:06;21.00;91.90
10314;DHT22;5202;49.138;10.090;2022-08-01T06:58:35;21.10;91.40
10314;DHT22;5202;49.138;10.090;2022-08-01T07:01:05;21.20;91.40
10314;DHT22;5202;49.138;10.090;2022-08-01T07:03:35;21.20;91.30
10314;DHT22;5202;49.138;10.090;2022-08-01T07:06:21;21.20;91.30
10314;DHT22;5202;49.138;10.090;2022-08-01T07:08:50;21.30;91.20
10314;DHT22;5202;49.138;10.090;2022-08-01T07:11:19;21.40;91.30
10314;DHT22;5202;49.138;10.090;2022-08-01T07:13:48;21.40;91.00
10314;DHT22;5202;49.138;10.090;2022-08-01T07:16:16;21.40;91.20
10314;DHT22;5202;49.138;10.090;2022-08-01T07:18:46;21.40;91.20
10314;DHT22;5202;49.138;10.090;2022-08-01T07:21:15;21.50;90.80
10314;DHT22;5202;49.138;10.090;2022-08-01T07:24:04;21.50;90.80
10314;DHT22;5202;49.138;10.090;2022-08-01T07:26:40;21.60;90.90
10314;DHT22;5202;49.138;10.090;2022-08-01T07:29:21;21.80;90.80
10314;DHT22;5202;49.138;10.090;2022-08-01T07:31:50;22.10;90.40
10314;DHT22;5202;49.138;10.090;2022-08-01T07:34:21;22.20;90.00
10314;DHT22;5202;49.138;10.090;2022-08-01T07:36:50;22.20;90.00
10314;DHT22;5202;49.138;10.090;2022-08-01T07:39:19;22.20;90.00
10314;DHT22;5202;49.138;10.090;2022-08-01T07:41:48;22.30;90.30
10314;DHT22;5202;49.138;10.090;2022-08-01T07:44:32;22.40;89.20
10314;DHT22;5202;49.138;10.090;2022-08-01T07:47:01;22.30;89.20
10314;DHT22;5202;49.138;10.090;2022-08-01T07:49:30;22.20;89.80
10314;DHT22;5202;49.138;10.090;2022-08-01T07:52:06;22.10;90.00
10314;DHT22;5202;49.138;10.090;2022-08-01T07:54:34;22.20;90.20
10314;DHT22;5202;49.138;10.090;2022-08-01T07:57:03;22.30;90.10
10314;DHT22;5202;49.138;10.090;2022-08-01T07:59:31;22.30;89.30
10314;DHT22;5202;49.138;10.090;2022-08-01T08:02:00;22.30;90.10
10314;DHT22;5202;49.138;10.090;2022-08-01T08:04:29;22.30;89.80
10314;DHT22;5202;49.138;10.090;2022-08-01T08:06:58;22.30;90.00
10314;DHT22;5202;49.138;10.090;2022-08-01T08:09:26;22.50;88.90
10314;DHT22;5202;49.138;10.090;2022-08-01T08:11:54;22.70;87.80
10314;DHT22;5202;49.138;10.090;2022-08-01T08:14:23;22.80;86.10
10314;DHT22;5202;49.138;10.090;2022-08-01T08:16:59;22.70;86.50
10314;DHT22;5202;49.138;10.090;2022-08-01T08:19:29;22.60;86.50
10314;DHT22;5202;49.138;10.090;2022-08-01T08:22:05;22.50;87.30
10314;DHT22;5202;49.138;10.090;2022-08-01T08:24:35;22.50;88.10
10314;DHT22;5202;49.138;10.090;2022-08-01T08:27:12;22.40;86.60
10314;DHT22;5202;49.138;10.090;2022-08-01T08:29:41;22.30;87.00
10314;DHT22;5202;49.138;10.090;2022-08-01T08:32:10;22.30;87.20
10314;DHT22;5202;49.138;10.090;2022-08-01T08:34:40;22.40;87.20
10314;DHT22;5202;49.138;10.090;2022-08-01T08:37:09;22.40;86.30
10314;DHT22;5202;49.138;10.090;2022-08-01T08:39:38;22.50;86.60
10314;DHT22;5202;49.138;10.090;2022-08-01T08:42:08;22.50;87.00
10314;DHT22;5202;49.138;10.090;2022-08-01T08:44:43;22.50;86.40
10314;DHT22;5202;49.138;10.090;2022-08-01T08:47:12;22.60;86.00
10314;DHT22;5202;49.138;10.090;2022-08-01T08:49:48;22.80;85.50
10314;DHT22;5202;49.138;10.090;2022-08-01T08:52:19;22.90;85.40
10314;DHT22;5202;49.138;10.090;2022-08-01T08:54:49;23.00;84.90
10314;DHT22;5202;49.138;10.090;2022-08-01T08:57:20;23.10;84.80
10314;DHT22;5202;49.138;10.090;2022-08-01T08:59:49;23.10;84.20
10314;DHT22;5202;49.138;10.090;2022-08-01T09:02:21;23.20;84.40
10314;DHT22;5202;49.138;10.090;2022-08-01T09:04:51;23.20;83.20
10314;DHT22;5202;49.138;10.090;2022-08-01T09:07:20;23.10;82.80
10314;DHT22;5202;49.138;10.090;2022-08-01T09:09:50;23.00;83.00
10314;DHT22;5202;49.138;10.090;2022-08-01T09:12:19;23.00;83.10
10314;DHT22;5202;49.138;10.090;2022-08-01T09:14:48;23.00;83.70
10314;DHT22;5202;49.138;10.090;2022-08-01T09:17:20;22.90;83.50
10314;DHT22;5202;49.138;10.090;2022-08-01T09:19:51;22.80;83.40
10314;DHT22;5202;49.138;10.090;2022-08-01T09:22:24;23.10;82.60
10314;DHT22;5202;49.138;10.090;2022-08-01T09:25:01;23.00;82.20
10314;DHT22;5202;49.138;10.090;2022-08-01T09:27:32;23.00;82.20
10314;DHT22;5202;49.138;10.090;2022-08-01T09:30:10;23.00;82.00
10314;DHT22;5202;49.138;10.090;2022-08-01T09:32:56;23.00;82.10
10314;DHT22;5202;49.138;10.090;2022-08-01T09:35:30;23.10;82.10
10314;DHT22;5202;49.138;10.090;2022-08-01T09:38:16;23.10;82.30
10314;DHT22;5202;49.138;10.090;2022-08-01T09:40:52;23.10;81.70
10314;DHT22;5202;49.138;10.090;2022-08-01T09:43:26;22.90;81.30
10314;DHT22;5202;49.138;10.090;2022-08-01T09:46:03;22.90;81.50
10314;DHT22;5202;49.138;10.090;2022-08-01T09:48:39;23.00;82.20
10314;DHT22;5202;49.138;10.090;2022-08-01T09:51:32;23.20;81.60
10314;DHT22;5202;49.138;10.090;2022-08-01T09:54:29;23.30;81.30
10314;DHT22;5202;49.138;10.090;2022-08-01T09:57:10;23.20;81.40
10314;DHT22;5202;49.138;10.090;2022-08-01T09:59:41;23.30;81.80
10314;DHT22;5202;49.138;10.090;2022-08-01T10:02:30;23.40;81.60
10314;DHT22;5202;49.138;10.090;2022-08-01T10:05:03;23.50;81.30
10314;DHT22;5202;49.138;10.090;2022-08-01T10:07:54;23.60;81.30
10314;DHT22;5202;49.138;10.090;2022-08-01T10:10:25;23.60;80.60
10314;DHT22;5202;49.138;10.090;2022-08-01T10:12:58;23.50;81.00
10314;DHT22;5202;49.138;10.090;2022-08-01T10:15:29;23.40;81.20
10314;DHT22;5202;49.138;10.090;2022-08-01T10:18:09;23.40;81.20
10314;DHT22;5202;49.138;10.090;2022-08-01T10:20:47;23.40;81.10
10314;DHT22;5202;49.138;10.090;2022-08-01T10:23:17;23.50;80.90
10314;DHT22;5202;49.138;10.090;2022-08-01T10:25:47;23.60;81.20
10314;DHT22;5202;49.138;10.090;2022-08-01T10:28:23;23.80;80.70
10314;DHT22;5202;49.138;10.090;2022-08-01T10:30:53;23.70;80.80
10314;DHT22;5202;49.138;10.090;2022-08-01T10:33:22;23.70;80.80
10314;DHT22;5202;49.138;10.090;2022-08-01T10:36:11;23.70;80.80
10314;DHT22;5202;49.138;10.090;2022-08-01T10:38:44;23.80;80.40
10314;DHT22;5202;49.138;10.090;2022-08-01T10:41:14;23.90;79.50
10314;DHT22;5202;49.138;10.090;2022-08-01T10:43:43;23.90;79.00
10314;DHT22;5202;49.138;10.090;2022-08-01T10:46:13;23.70;78.90
10314;DHT22;5202;49.138;10.090;2022-08-01T10:48:49;23.80;79.00
10314;DHT22;5202;49.138;10.090;2022-08-01T10:51:23;24.00;78.00
10314;DHT22;5202;49.138;10.090;2022-08-01T10:54:13;24.30;77.30
10314;DHT22;5202;49.138;10.090;2022-08-01T10:56:43;24.30;77.80
10314;DHT22;5202;49.138;10.090;2022-08-01T10:59:20;24.20;78.20
10314;DHT22;5202;49.138;10.090;2022-08-01T11:02:09;24.30;78.00
10314;DHT22;5202;49.138;10.090;2022-08-01T11:04:44;24.60;77.40
10314;DHT22;5202;49.138;10.090;2022-08-01T11:07:18;24.70;76.20
10314;DHT22;5202;49.138;10.090;2022-08-01T11:10:04;24.60;76.90
10314;DHT22;5202;49.138;10.090;2022-08-01T11:12:42;24.60;76.80
10314;DHT22;5202;49.138;10.090;2022-08-01T11:15:22;24.50;76.80
10314;DHT22;5202;49.138;10.090;2022-08-01T11:17:58;24.50;75.60
10314;DHT22;5202;49.138;10.090;2022-08-01T11:20:29;24.60;76.60
10314;DHT22;5202;49.138;10.090;2022-08-01T11:23:24;24.80;76.10
10314;DHT22;5202;49.138;10.090;2022-08-01T11:26:21;24.80;74.20
10314;DHT22;5202;49.138;10.090;2022-08-01T11:29:18;24.80;75.50
10314;DHT22;5202;49.138;10.090;2022-08-01T11:31:49;24.70;75.30
10314;DHT22;5202;49.138;10.090;2022-08-01T11:34:19;24.60;74.80
10314;DHT22;5202;49.138;10.090;2022-08-01T11:36:48;24.90;74.50
10314;DHT22;5202;49.138;10.090;2022-08-01T11:39:25;25.10;74.60
10314;DHT22;5202;49.138;10.090;2022-08-01T11:42:17;25.30;74.50
10314;DHT22;5202;49.138;10.090;2022-08-01T11:44:50;25.60;74.40
10314;DHT22;5202;49.138;10.090;2022-08-01T11:47:47;25.70;72.40
10314;DHT22;5202;49.138;10.090;2022-08-01T11:50:34;25.50;73.70
10314;DHT22;5202;49.138;10.090;2022-08-01T11:53:06;25.70;73.20
10314;DHT22;5202;49.138;10.090;2022-08-01T11:55:37;25.70;72.90
10314;DHT22;5202;49.138;10.090;2022-08-01T11:58:08;25.70;73.30
10314;DHT22;5202;49.138;10.090;2022-08-01T12:00:53;25.70;72.80
10314;DHT22;5202;49.138;10.090;2022-08-01T12:03:30;25.90;72.40
10314;DHT22;5202;49.138;10.090;2022-08-01T12:06:00;25.70;72.90
10314;DHT22;5202;49.138;10.090;2022-08-01T12:08:30;25.50;72.30
10314;DHT22;5202;49.138;10.090;2022-08-01T12:11:00;25.30;72.70
10314;DHT22;5202;49.138;10.090;2022-08-01T12:13:39;25.20;73.20
10314;DHT22;5202;49.138;10.090;2022-08-01T12:16:10;25.30;73.30
10314;DHT22;5202;49.138;10.090;2022-08-01T12:18:40;25.30;73.50
10314;DHT22;5202;49.138;10.090;2022-08-01T12:21:09;25.40;73.90
10314;DHT22;5202;49.138;10.090;2022-08-01T12:23:37;25.30;72.90
10314;DHT22;5202;49.138;10.090;2022-08-01T12:26:06;25.30;73.20
10314;DHT22;5202;49.138;10.090;2022-08-01T12:28:54;25.30;73.30
10314;DHT22;5202;49.138;10.090;2022-08-01T12:31:31;25.20;73.10
10314;DHT22;5202;49.138;10.090;2022-08-01T12:34:28;25.20;72.70
10314;DHT22;5202;49.138;10.090;2022-08-01T12:36:58;25.20;72.40
10314;DHT22;5202;49.138;10.090;2022-08-01T12:39:31;25.30;73.10
10314;DHT22;5202;49.138;10.090;2022-08-01T12:42:01;25.30;72.70
10314;DHT22;5202;49.138;10.090;2022-08-01T12:44:30;25.30;73.20
10314;DHT22;5202;49.138;10.090;2022-08-01T12:46:59;25.40;72.60
10314;DHT22;5202;49.138;10.090;2022-08-01T12:49:30;25.60;72.60
10314;DHT22;5202;49.138;10.090;2022-08-01T12:51:59;25.70;71.90
10314;DHT22;5202;49.138;10.090;2022-08-01T12:55:06;25.60;70.60
10314;DHT22;5202;49.138;10.090;2022-08-01T12:57:38;25.90;71.40
10314;DHT22;5202;49.138;10.090;2022-08-01T13:00:17;25.80;69.60
10314;DHT22;5202;49.138;10.090;2022-08-01T13:02:47;25.80;68.50
10314;DHT22;5202;49.138;10.090;2022-08-01T13:05:18;25.90;68.50
10314;DHT22;5202;49.138;10.090;2022-08-01T13:07:49;26.00;67.80
10314;DHT22;5202;49.138;10.090;2022-08-01T13:10:27;26.20;68.00
10314;DHT22;5202;49.138;10.090;2022-08-01T13:12:58;26.30;67.70
10314;DHT22;5202;49.138;10.090;2022-08-01T13:15:29;26.20;66.60
10314;DHT22;5202;49.138;10.090;2022-08-01T13:18:00;26.40;66.30
10314;DHT22;5202;49.138;10.090;2022-08-01T13:20:33;26.50;66.20
10314;DHT22;5202;49.138;10.090;2022-08-01T13:23:15;26.60;66.70
10314;DHT22;5202;49.138;10.090;2022-08-01T13:26:04;26.90;66.30
10314;DHT22;5202;49.138;10.090;2022-08-01T13:28:33;26.60;65.20
10314;DHT22;5202;49.138;10.090;2022-08-01T13:31:05;26.40;66.00
10314;DHT22;5202;49.138;10.090;2022-08-01T13:33:42;26.40;66.40
10314;DHT22;5202;49.138;10.090;2022-08-01T13:36:19;26.50;65.50
10314;DHT22;5202;49.138;10.090;2022-08-01T13:38:54;26.50;65.60
10314;DHT22;5202;49.138;10.090;2022-08-01T13:41:40;26.50;66.10
10314;DHT22;5202;49.138;10.090;2022-08-01T13:44:08;26.50;66.60
10314;DHT22;5202;49.138;10.090;2022-08-01T13:46:38;26.70;66.00
10314;DHT22;5202;49.138;10.090;2022-08-01T13:49:15;26.80;66.40
10314;DHT22;5202;49.138;10.090;2022-08-01T13:51:46;26.70;65.60
10314;DHT22;5202;49.138;10.090;2022-08-01T13:54:17;26.80;65.80
10314;DHT22;5202;49.138;10.090;2022-08-01T13:56:45;26.70;65.70
10314;DHT22;5202;49.138;10.090;2022-08-01T13:59:13;26.60;66.30
10314;DHT22;5202;49.138;10.090;2022-08-01T14:01:42;26.70;66.20
10314;DHT22;5202;49.138;10.090;2022-08-01T14:04:10;26.80;66.30
10314;DHT22;5202;49.138;10.090;2022-08-01T14:06:39;26.90;65.80
10314;DHT22;5202;49.138;10.090;2022-08-01T14:09:09;27.50;65.60
10314;DHT22;5202;49.138;10.090;2022-08-01T14:11:44;27.80;63.60
10314;DHT22;5202;49.138;10.090;2022-08-01T14:14:13;28.00;62.30
10314;DHT22;5202;49.138;10.090;2022-08-01T14:16:42;28.40;62.20
10314;DHT22;5202;49.138;10.090;2022-08-01T14:19:11;28.20;61.20
10314;DHT22;5202;49.138;10.090;2022-08-01T14:21:42;28.30;61.20
10314;DHT22;5202;49.138;10.090;2022-08-01T14:24:12;28.40;60.50
10314;DHT22;5202;49.138;10.090;2022-08-01T14:26:40;28.50;59.00
10314;DHT22;5202;49.138;10.090;2022-08-01T14:29:09;28.40;57.70
10314;DHT22;5202;49.138;10.090;2022-08-01T14:31:37;28.30;58.20
10314;DHT22;5202;49.138;10.090;2022-08-01T14:34:05;28.40;57.30
10314;DHT22;5202;49.138;10.090;2022-08-01T14:36:34;28.30;57.70
10314;DHT22;5202;49.138;10.090;2022-08-01T14:39:05;27.90;58.30
10314;DHT22;5202;49.138;10.090;2022-08-01T14:41:42;27.80;58.60
10314;DHT22;5202;49.138;10.090;2022-08-01T14:44:12;27.80;58.30
10314;DHT22;5202;49.138;10.090;2022-08-01T14:46:40;27.80;58.70
10314;DHT22;5202;49.138;10.090;2022-08-01T14:49:24;27.80;59.00
10314;DHT22;5202;49.138;10.090;2022-08-01T14:51:53;27.80;59.60
10314;DHT22;5202;49.138;10.090;2022-08-01T14:54:21;27.90;59.40
10314;DHT22;5202;49.138;10.090;2022-08-01T14:56:56;28.20;59.40
10314;DHT22;5202;49.138;10.090;2022-08-01T14:59:25;28.40;58.50
10314;DHT22;5202;49.138;10.090;2022-08-01T15:01:53;28.70;58.40
10314;DHT22;5202;49.138;10.090;2022-08-01T15:04:21;28.80;57.50
10314;DHT22;5202;49.138;10.090;2022-08-01T15:06:50;28.50;57.00
10314;DHT22;5202;49.138;10.090;2022-08-01T15:09:18;28.10;58.30
10314;DHT22;5202;49.138;10.090;2022-08-01T15:11:46;27.90;58.20
10314;DHT22;5202;49.138;10.090;2022-08-01T15:14:16;27.80;58.50
10314;DHT22;5202;49.138;10.090;2022-08-01T15:17:01;27.70;59.20
10314;DHT22;5202;49.138;10.090;2022-08-01T15:19:30;27.60;59.10
10314;DHT22;5202;49.138;10.090;2022-08-01T15:21:58;27.60;58.70
10314;DHT22;5202;49.138;10.090;2022-08-01T15:24:27;27.40;59.30
10314;DHT22;5202;49.138;10.090;2022-08-01T15:26:56;27.50;59.70
10314;DHT22;5202;49.138;10.090;2022-08-01T15:29:25;27.50;60.70
10314;DHT22;5202;49.138;10.090;2022-08-01T15:31:53;27.70;61.50
10314;DHT22;5202;49.138;10.090;2022-08-01T15:34:23;27.90;61.80
10314;DHT22;5202;49.138;10.090;2022-08-01T15:36:52;28.20;60.80
10314;DHT22;5202;49.138;10.090;2022-08-01T15:39:20;28.40;60.90
10314;DHT22;5202;49.138;10.090;2022-08-01T15:41:49;28.30;59.80
10314;DHT22;5202;49.138;10.090;2022-08-01T15:44:17;28.20;59.70
10314;DHT22;5202;49.138;10.090;2022-08-01T15:46:48;28.00;59.70
10314;DHT22;5202;49.138;10.090;2022-08-01T15:49:17;27.90;59.80
10314;DHT22;5202;49.138;10.090;2022-08-01T15:51:49;27.80;59.20
10314;DHT22;5202;49.138;10.090;2022-08-01T15:54:18;27.80;59.80
10314;DHT22;5202;49.138;10.090;2022-08-01T15:56:46;27.70;60.00
10314;DHT22;5202;49.138;10.090;2022-08-01T15:59:14;27.60;60.40
10314;DHT22;5202;49.138;10.090;2022-08-01T16:01:44;27.60;60.60
10314;DHT22;5202;49.138;10.090;2022-08-01T16:04:18;27.50;60.90